Nearby METAR Reports

 

KMTN - Baltimore/Martin, Maryland, USA
Distance from station: SSE 8mi, 13km
Updated: Wed, 04-Mar-2015 2:45pm EST
Light rain, Mist, Overcast
Light rain, Mist, Overcast
 Wind from NNE
Wind: NNE 6 mph , 9 km/h
Temperature: 43°F , 6°C
Wind Chill: 39°F , 4°C
Dew Point: 43°F , 6°C
Humidity: 100%
Barometer: 29.90 inHg , 1012.5 hPa
Summary: Light rain, Mist
Clouds: Overcast
Visibility: 1 mile , 2 km
Cloud details: Overcast 700 ft
2015/03/04 19:45 KMTN 041945Z 02005KT 1SM -RABR OVC007 06/06 A2990
KDMH - Baltimore/Dwntwn, Maryland, USA
Distance from station: SW 12mi, 19km
Updated: Wed, 04-Mar-2015 2:54pm EST

 
Temperature: 45°F , 7°C
Dew Point: 43°F , 6°C
Humidity: 93%
Barometer: 29.88 inHg , 1011.9 hPa
2015/03/04 19:54 KDMH 041954Z AUTO 07/06 A2988 RMK AO1 SLP117 P0002 T00720056
 
KBWI - Balto/Wash Intl, Maryland, USA
Distance from station: SSW 20mi, 33km
Updated: Wed, 04-Mar-2015 2:54pm EST
Light rain, Mist, Overcast
Light rain, Mist, Overcast
 Wind from calm
Wind: Calm
Temperature: 45°F , 7°C
Dew Point: 43°F , 6°C
Humidity: 93%
Barometer: 29.87 inHg , 1011.5 hPa
Summary: Light rain, Mist
Clouds: Overcast
Visibility: 4 miles , 6 km
Cloud details: Few Clouds 2600 ft
Mostly cloudy 7500 ft
Overcast 9000 ft
2015/03/04 19:54 KBWI 041954Z 00000KT 4SM -RA BR FEW026 BKN075 OVC090 07/06 A2987 RMK AO2 SLP115 P0001 T00720056
KDMW - Carroll Cnty, Maryland, USA
Distance from station: WNW 30mi, 48km
Updated: Wed, 04-Mar-2015 3:00pm EST
Rain, Partly cloudy
Rain, Partly cloudy
 Wind from calm
Wind: Calm
Temperature: 45°F , 7°C
Dew Point: 43°F , 6°C
Humidity: 93%
Barometer: 29.87 inHg , 1011.5 hPa
Summary: Rain
Clouds: Partly cloudy
Visibility: 2 1/2 miles , 2 km
Cloud details: Partly cloudy 5000 ft
2015/03/04 20:00 KDMW 042000Z AUTO 00000KT 2 1/2SM RA SCT050 07/06 A2987 RMK AO2
 
KNAK - Annapolis/Naval, Maryland, USA
Distance from station: S 30mi, 48km
Updated: Wed, 04-Mar-2015 2:54pm EST
Fog, Overcast
Fog, Overcast
 Wind from SE
Wind: SE 8 mph , 13 km/h
Temperature: 36°F , 2°C
Wind Chill: 30°F , -1°C
Dew Point: 36°F , 2°C
Humidity: 100%
Barometer: 29.87 inHg , 1011.5 hPa
Summary: Fog
Clouds: Overcast
Visibility: 1/4 mile , 2 km
Cloud details: Overcast 8500 ft
2015/03/04 19:54 KNAK 041954Z AUTO 13007KT 1/4SM UP FG OVC085 02/02 A2987 RMK AO2 UPB54 SLP117 P0000 T00220017
KW29 - Stevensville, Maryland, USA
Distance from station: SSE 31mi, 50km
Updated: Wed, 04-Mar-2015 3:02pm EST
Fog
Fog
 Wind from SE
Wind: SE 5 mph , 7 km/h
Temperature: 41°F , 5°C
Wind Chill: 38°F , 3°C
Dew Point: 41°F , 5°C
Humidity: 100%
Barometer: 29.89 inHg , 1012.2 hPa
Summary: Fog
Visibility: 1/4 mile , 2 km
2015/03/04 20:02 KW29 042002Z AUTO 14004KT 1/4SM FG 05/05 A2989 RMK AO1
 
KCGS - College Park, Maryland, USA
Distance from station: SW 38mi, 61km
Updated: Wed, 04-Mar-2015 3:00pm EST
Overcast
Overcast
 Wind from calm
Wind: Calm
Temperature: 46°F , 8°C
Dew Point: 45°F , 7°C
Humidity: 93%
Barometer: 29.87 inHg , 1011.5 hPa
Clouds: Overcast
Visibility: 5 miles , 8 km
Cloud details: Overcast 800 ft
2015/03/04 20:00 KCGS 042000Z AUTO 00000KT 5SM OVC008 08/07 A2987 RMK AO1
KGAI - Gaithersburg, Maryland, USA
Distance from station: WSW 40mi, 65km
Updated: Wed, 04-Mar-2015 2:55pm EST
Overcast
Overcast
 Wind from calm
Wind: Calm
Temperature: 45°F , 7°C
Dew Point: 39°F , 4°C
Humidity: 81%
Barometer: 29.90 inHg , 1012.5 hPa
Clouds: Overcast
Visibility: 3 miles , 5 km
Cloud details: Few Clouds 4600 ft
Mostly cloudy 6500 ft
Overcast 7500 ft
2015/03/04 19:55 KGAI 041955Z AUTO 00000KT 3SM FEW046 BKN065 OVC075 07/04 A2990 RMK AO1 P0001
 
KTHV - York, Pennsylvania, USA
Distance from station: NNW 40mi, 65km
Updated: Wed, 04-Mar-2015 3:07pm EST
Light rain, Mist, Overcast
Light rain, Mist, Overcast
 Wind from ESE
Wind: ESE 3 mph , 6 km/h
Temperature: 41°F , 5°C
Dew Point: 39°F , 4°C
Humidity: 93%
Barometer: 29.87 inHg , 1011.5 hPa
Summary: Light rain, Mist
Clouds: Overcast
Visibility: 2 1/2 miles , 2 km
Cloud details: Overcast 3100 ft
2015/03/04 20:07 KTHV 042007Z AUTO 12003KT 2 1/2SM -RA BR OVC031 05/04 A2987 RMK AO2 P0001 T00500044
KFDK - Frederick, Maryland, USA
Distance from station: W 47mi, 75km
Updated: Wed, 04-Mar-2015 2:55pm EST
Rain, Overcast
Rain, Overcast
 Wind from calm
Wind: Calm
Temperature: 43°F , 6°C
Dew Point: 37°F , 3°C
Humidity: 81%
Barometer: 29.90 inHg , 1012.5 hPa
Summary: Rain
Clouds: Overcast
Visibility: 2 miles , 3 km
Cloud details: Overcast 8000 ft
2015/03/04 19:55 KFDK 041955Z 00000KT 2SM RA OVC080 06/03 A2990
 
KESN - Easton/Newnam, Maryland, USA
Distance from station: SSE 48mi, 78km
Updated: Wed, 04-Mar-2015 2:50pm EST
Mist, Overcast
Mist, Overcast
 Wind from calm
Wind: Calm
Temperature: 48°F , 9°C
Dew Point: 48°F , 9°C
Humidity: 100%
Barometer: 29.90 inHg , 1012.5 hPa
Summary: Mist
Clouds: Overcast
Visibility: 1 3/4 miles , 5 km
Cloud details: Overcast 300 ft
2015/03/04 19:50 KESN 041950Z 00000KT 1 3/4SM BR OVC003 09/09 A2990
KDCA - Washington/Natl, Washington D.c., USA
Distance from station: SW 49mi, 79km
Updated: Wed, 04-Mar-2015 2:52pm EST
Light rain, Haze, Overcast
Light rain, Haze, Overcast
 Wind from S
Wind: S 7 mph , 11 km/h
Temperature: 48°F , 9°C
Wind Chill: 45°F , 7°C
Dew Point: 43°F , 6°C
Humidity: 82%
Barometer: 29.88 inHg , 1011.9 hPa
Summary: Light rain, Haze
Clouds: Overcast
Visibility: 4 miles , 6 km
Cloud details: Mostly cloudy 600 ft
Overcast 8000 ft
2015/03/04 19:52 KDCA 041952Z 18006KT 4SM -RA HZ BKN006 OVC080 09/06 A2988 RMK AO2 RAB47 SLP117 P0000 T00890061
 
KLNS - Lancaster, Pennsylvania, USA
Distance from station: N 49mi, 79km
Updated: Wed, 04-Mar-2015 3:03pm EST
Light rain, Mist, Overcast
Light rain, Mist, Overcast
 Wind from SE
Wind: SE 3 mph , 6 km/h
Temperature: 36°F , 2°C
Dew Point: 36°F , 2°C
Humidity: 100%
Barometer: 29.87 inHg , 1011.5 hPa
Summary: Light rain, Mist
Clouds: Overcast
Visibility: 3/4 mile , 5 km
Cloud details: Overcast 7500 ft
2015/03/04 20:03 KLNS 042003Z 13003KT 3/4SM -RA BR OVC075 02/02 A2987 RMK AO2 P0001 T00220022
KILG - Wilmington, Delaware, USA
Distance from station: ENE 50mi, 81km
Updated: Wed, 04-Mar-2015 2:51pm EST
Light rain, Mist, Overcast
Light rain, Mist, Overcast
 Wind from WSW
Wind: WSW 5 mph , 7 km/h
Temperature: 43°F , 6°C
Wind Chill: 40°F , 4°C
Dew Point: 39°F , 4°C
Humidity: 87%
Barometer: 29.90 inHg , 1012.5 hPa
Summary: Light rain, Mist
Clouds: Overcast
Visibility: 3 miles , 5 km
Cloud details: Overcast 9000 ft
2015/03/04 19:51 KILG 041951Z 24004KT 3SM -RA BR OVC090 06/04 A2990 RMK AO2 RAB01 SLP127 P0001 T00610044